createdAt,value
2017-02-05T00:00:57.753Z,987.6
2017-02-05T00:02:08.107Z,987.57
2017-02-05T00:03:18.463Z,987.57
2017-02-05T00:04:29.206Z,987.6
2017-02-05T00:05:39.965Z,987.62
2017-02-05T00:06:50.713Z,987.58
2017-02-05T00:08:00.688Z,987.53
2017-02-05T00:09:11.447Z,987.5
2017-02-05T00:10:22.198Z,987.51
2017-02-05T00:11:32.983Z,987.51
2017-02-05T00:12:43.330Z,987.51
2017-02-05T00:13:54.112Z,987.57
2017-02-05T00:15:04.864Z,987.55
2017-02-05T00:16:14.437Z,987.58
2017-02-05T00:17:23.997Z,987.61
2017-02-05T00:18:34.750Z,987.66
2017-02-05T00:19:45.488Z,987.77
2017-02-05T00:20:56.241Z,987.8
2017-02-05T00:22:06.595Z,987.75
2017-02-05T00:23:17.343Z,987.79
2017-02-05T00:24:28.118Z,987.72
2017-02-05T00:25:38.871Z,987.72
2017-02-05T00:26:49.623Z,987.7
2017-02-05T00:27:59.966Z,987.71
2017-02-05T00:29:10.722Z,987.71
2017-02-05T00:30:21.458Z,987.65
2017-02-05T00:31:32.215Z,987.62
2017-02-05T00:32:42.591Z,987.63
2017-02-05T00:33:52.944Z,987.66
2017-02-05T00:35:03.729Z,987.65
2017-02-05T00:36:14.467Z,987.66
2017-02-05T00:37:24.838Z,987.67
2017-02-05T00:38:35.218Z,987.67
2017-02-05T00:39:45.968Z,987.68
2017-02-05T00:40:56.709Z,987.67
2017-02-05T00:42:07.062Z,987.66
2017-02-05T00:43:17.829Z,987.61
2017-02-05T00:44:27.807Z,987.54
2017-02-05T00:45:38.150Z,987.57
2017-02-05T00:46:47.715Z,987.59
2017-02-05T00:47:57.272Z,987.63
2017-02-05T00:49:08.014Z,987.64
2017-02-05T00:50:18.772Z,987.59
2017-02-05T00:51:28.728Z,987.64
2017-02-05T00:52:38.698Z,987.65
2017-02-05T00:53:49.448Z,987.67
2017-02-05T00:54:59.830Z,987.68
2017-02-05T00:56:09.804Z,987.72
2017-02-05T00:57:20.573Z,987.74
2017-02-05T00:58:31.341Z,987.79
2017-02-05T00:59:41.300Z,987.69
2017-02-05T01:00:52.033Z,987.68
2017-02-05T01:02:02.390Z,987.67
2017-02-05T01:03:13.139Z,987.67
2017-02-05T01:04:23.479Z,987.62
2017-02-05T01:05:33.825Z,987.59
2017-02-05T01:06:44.179Z,987.58
2017-02-05T01:07:54.544Z,987.5
2017-02-05T01:09:05.301Z,987.46
2017-02-05T01:10:15.258Z,987.44
2017-02-05T01:11:25.666Z,987.31
2017-02-05T01:12:35.637Z,987.33
2017-02-05T01:13:45.997Z,987.27
2017-02-05T01:14:56.354Z,987.27
2017-02-05T01:16:06.715Z,987.25
2017-02-05T01:17:17.476Z,987.29
2017-02-05T01:18:27.419Z,987.31
2017-02-05T01:19:36.985Z,987.28
2017-02-05T01:20:46.546Z,987.26
2017-02-05T01:21:57.339Z,987.27
2017-02-05T01:23:07.711Z,987.28
2017-02-05T01:24:18.453Z,987.28
2017-02-05T01:25:28.414Z,987.29
2017-02-05T01:26:38.765Z,987.3
2017-02-05T01:27:49.128Z,987.3
2017-02-05T01:28:59.874Z,987.27
2017-02-05T01:30:09.432Z,987.28
2017-02-05T01:31:19.382Z,987.29
2017-02-05T01:32:29.735Z,987.33
2017-02-05T01:33:40.486Z,987.28
2017-02-05T01:34:50.843Z,987.28
2017-02-05T01:36:01.590Z,987.26
2017-02-05T01:37:12.325Z,987.22
2017-02-05T01:38:23.072Z,987.16
2017-02-05T01:39:33.036Z,987.23
2017-02-05T01:40:43.402Z,987.2
2017-02-05T01:41:54.152Z,987.21
2017-02-05T01:43:04.900Z,987.23
2017-02-05T01:44:15.637Z,987.24
2017-02-05T01:45:26.382Z,987.28
2017-02-05T01:46:36.343Z,987.31
2017-02-05T01:47:46.701Z,987.3
2017-02-05T01:48:57.453Z,987.3
2017-02-05T01:50:07.843Z,987.3
2017-02-05T01:51:18.590Z,987.21
2017-02-05T01:52:28.941Z,987.25
2017-02-05T01:53:39.289Z,987.22
2017-02-05T01:54:49.647Z,987.17
2017-02-05T01:56:00.012Z,987.19
2017-02-05T01:57:10.365Z,987.2
2017-02-05T01:58:20.722Z,987.2
2017-02-05T01:59:31.469Z,987.16
2017-02-05T02:00:41.825Z,987.19
2017-02-05T02:01:51.789Z,987.19
2017-02-05T02:03:02.532Z,987.24
2017-02-05T02:04:12.882Z,987.22
2017-02-05T02:05:23.641Z,987.2
2017-02-05T02:06:33.977Z,987.19
2017-02-05T02:07:44.725Z,987.24
2017-02-05T02:08:55.481Z,987.16
2017-02-05T02:10:05.827Z,987.18
2017-02-05T02:11:15.397Z,987.21
2017-02-05T02:12:25.764Z,987.2
2017-02-05T02:13:36.107Z,987.2
2017-02-05T02:14:46.862Z,987.21
2017-02-05T02:15:57.616Z,987.22
2017-02-05T02:17:08.363Z,987.2
2017-02-05T02:18:19.350Z,987.2
2017-02-05T02:19:30.086Z,987.24
2017-02-05T02:20:40.050Z,987.2
2017-02-05T02:21:50.837Z,987.17
2017-02-05T02:23:01.601Z,987.2
2017-02-05T02:24:11.960Z,987.18
2017-02-05T02:25:21.929Z,987.21
2017-02-05T02:26:31.891Z,987.21
2017-02-05T02:27:42.247Z,987.23
2017-02-05T02:28:52.984Z,987.18
2017-02-05T02:30:02.951Z,987.2
2017-02-05T02:31:13.722Z,987.26
2017-02-05T02:32:24.075Z,987.26
2017-02-05T02:33:34.064Z,987.19
2017-02-05T02:34:44.433Z,987.17
2017-02-05T02:35:54.403Z,987.21
2017-02-05T02:37:05.155Z,987.28
2017-02-05T02:38:15.905Z,987.3
2017-02-05T02:39:26.246Z,987.35
2017-02-05T02:40:36.206Z,987.31
2017-02-05T02:41:46.177Z,987.26
2017-02-05T02:42:56.913Z,987.27
2017-02-05T02:44:07.660Z,987.34
2017-02-05T02:45:18.404Z,987.34
2017-02-05T02:46:29.140Z,987.35
2017-02-05T02:47:39.493Z,987.34
2017-02-05T02:48:49.837Z,987.39
2017-02-05T02:50:00.191Z,987.36
2017-02-05T02:51:10.149Z,987.38
2017-02-05T02:52:20.892Z,987.42
2017-02-05T02:53:31.242Z,987.45
2017-02-05T02:54:41.988Z,987.44
2017-02-05T02:55:52.735Z,987.5
2017-02-05T02:57:03.487Z,987.54
2017-02-05T02:58:14.262Z,987.44
2017-02-05T02:59:24.612Z,987.43
2017-02-05T03:00:34.562Z,987.44
2017-02-05T03:32:30.631Z,987.76
2017-02-05T03:33:41.386Z,987.78
2017-02-05T03:34:51.774Z,987.76
2017-02-05T03:36:02.121Z,987.74
2017-02-05T03:37:12.463Z,987.75
2017-02-05T03:38:22.416Z,987.77
2017-02-05T03:39:32.782Z,987.77
2017-02-05T03:40:43.525Z,987.69
2017-02-05T03:41:53.476Z,987.71
2017-02-05T03:43:03.827Z,987.72
2017-02-05T03:44:13.773Z,987.73
2017-02-05T03:45:24.124Z,987.72
2017-02-05T03:46:34.475Z,987.73
2017-02-05T03:47:45.075Z,987.66
2017-02-05T03:48:55.423Z,987.69
2017-02-05T03:50:05.788Z,987.7
2017-02-05T03:51:15.764Z,987.72
2017-02-05T03:52:26.555Z,987.73
2017-02-05T03:53:37.307Z,987.78
2017-02-05T03:54:48.067Z,987.76
2017-02-05T03:55:58.431Z,987.81
2017-02-05T03:57:09.198Z,987.75
2017-02-05T03:58:19.171Z,987.74
2017-02-05T03:59:29.513Z,987.79
2017-02-05T04:00:39.481Z,987.78
2017-02-05T04:01:50.232Z,987.74
2017-02-05T04:03:00.978Z,987.85
2017-02-05T04:04:11.759Z,987.78
2017-02-05T04:05:21.739Z,987.88
2017-02-05T04:06:32.479Z,987.77
2017-02-05T04:07:43.222Z,987.76
2017-02-05T04:08:53.980Z,987.84
2017-02-05T04:10:04.732Z,987.74
2017-02-05T04:11:15.083Z,987.78
2017-02-05T04:12:25.825Z,987.71
2017-02-05T04:13:36.195Z,987.64
2017-02-05T04:14:46.157Z,987.61
2017-02-05T04:15:56.908Z,987.54
2017-02-05T04:17:07.651Z,987.67
2017-02-05T04:18:18.014Z,987.62
2017-02-05T04:19:28.763Z,987.59
2017-02-05T04:20:39.122Z,987.6
2017-02-05T04:21:49.477Z,987.66
2017-02-05T04:23:00.217Z,987.64
2017-02-05T04:24:10.605Z,987.65
2017-02-05T04:25:20.940Z,987.75
2017-02-05T04:26:30.905Z,987.77
2017-02-05T04:27:41.646Z,987.69
2017-02-05T04:28:52.393Z,987.77
2017-02-05T04:30:02.351Z,987.76
2017-02-05T04:31:11.942Z,987.7
2017-02-05T04:32:22.304Z,987.8
2017-02-05T04:33:32.652Z,987.83
2017-02-05T04:34:43.027Z,987.8
2017-02-05T04:35:53.779Z,987.74
2017-02-05T04:37:04.520Z,987.97
2017-02-05T04:38:14.875Z,987.84
2017-02-05T04:39:25.224Z,987.82
2017-02-05T04:40:35.580Z,987.75
2017-02-05T04:41:45.927Z,987.78
2017-02-05T04:42:56.522Z,987.82
2017-02-05T04:44:07.268Z,987.82
2017-02-05T04:45:18.021Z,987.89
2017-02-05T04:46:28.765Z,987.85
2017-02-05T04:47:39.529Z,987.83
2017-02-05T04:48:50.271Z,987.8
2017-02-05T04:50:01.224Z,987.8
2017-02-05T04:51:11.182Z,987.85
2017-02-05T04:52:21.540Z,987.82
2017-02-05T04:53:31.496Z,987.89
2017-02-05T04:54:42.241Z,987.86
2017-02-05T04:55:52.593Z,987.87
2017-02-05T04:57:03.351Z,987.94
2017-02-05T04:58:14.097Z,988.01
2017-02-05T04:59:24.865Z,988.02
2017-02-05T05:00:34.812Z,988.01
2017-02-05T05:01:44.803Z,987.98
2017-02-05T05:02:55.559Z,987.97
2017-02-05T05:04:05.516Z,987.99
2017-02-05T05:05:16.268Z,988.01
2017-02-05T05:06:26.643Z,988.04
2017-02-05T05:07:36.619Z,988.04
2017-02-05T05:08:46.962Z,988.08
2017-02-05T05:09:56.916Z,988.16
2017-02-05T05:11:07.270Z,988.2
2017-02-05T05:12:18.015Z,988.24
2017-02-05T05:13:28.372Z,988.25
2017-02-05T05:14:37.942Z,988.31
2017-02-05T05:15:48.300Z,988.25
2017-02-05T05:16:58.647Z,988.27
2017-02-05T05:18:08.592Z,988.3
2017-02-05T05:19:18.944Z,988.31
2017-02-05T05:20:29.698Z,988.34
2017-02-05T05:21:40.473Z,988.4
2017-02-05T05:22:51.229Z,988.37
2017-02-05T05:24:01.976Z,988.33
2017-02-05T05:25:12.747Z,988.28
2017-02-05T05:26:23.088Z,988.27
2017-02-05T05:27:33.446Z,988.31
2017-02-05T05:28:43.866Z,988.3
2017-02-05T05:29:54.627Z,988.3
2017-02-05T05:31:04.981Z,988.22
2017-02-05T05:32:15.330Z,988.32
2017-02-05T05:33:25.684Z,988.28
2017-02-05T05:34:36.435Z,988.23
2017-02-05T05:35:47.182Z,988.27
2017-02-05T05:36:57.928Z,988.3
2017-02-05T05:38:08.686Z,988.25
2017-02-05T05:39:19.052Z,988.27
2017-02-05T05:40:29.797Z,988.3
2017-02-05T05:41:40.546Z,988.23
2017-02-05T05:42:51.304Z,988.29
2017-02-05T05:44:01.660Z,988.3
2017-02-05T05:45:12.417Z,988.27
2017-02-05T05:46:23.192Z,988.28
2017-02-05T05:47:33.548Z,988.31
2017-02-05T05:48:43.902Z,988.3
2017-02-05T05:49:53.866Z,988.35
2017-02-05T05:51:04.612Z,988.3
2017-02-05T05:52:15.372Z,988.29
2017-02-05T05:53:26.123Z,988.31
2017-02-05T05:54:36.459Z,988.32
2017-02-05T05:55:47.055Z,988.31
2017-02-05T05:56:57.808Z,988.3
2017-02-05T05:58:07.773Z,988.31
2017-02-05T05:59:17.340Z,988.32
2017-02-05T06:00:27.694Z,988.34
2017-02-05T06:01:38.053Z,988.33
2017-02-05T06:02:48.396Z,988.37
2017-02-05T06:03:59.131Z,988.4
2017-02-05T06:05:09.474Z,988.41
2017-02-05T06:06:20.216Z,988.44
2017-02-05T06:07:30.958Z,988.45
2017-02-05T06:08:41.304Z,988.44
2017-02-05T06:09:51.665Z,988.46
2017-02-05T06:11:02.013Z,988.45
2017-02-05T06:12:12.775Z,988.48
2017-02-05T06:13:22.353Z,988.51
2017-02-05T06:14:32.696Z,988.47
2017-02-05T06:15:43.453Z,988.44
2017-02-05T06:16:54.202Z,988.45
2017-02-05T06:18:04.577Z,988.48
2017-02-05T06:19:15.377Z,988.5
2017-02-05T06:20:26.114Z,988.52
2017-02-05T06:21:36.462Z,988.52
2017-02-05T06:22:47.410Z,988.54
2017-02-05T06:23:57.769Z,988.56
2017-02-05T06:25:08.131Z,988.54
2017-02-05T06:26:18.110Z,988.58
2017-02-05T06:27:27.671Z,988.55
2017-02-05T06:28:38.417Z,988.55
2017-02-05T06:29:48.772Z,988.54
2017-02-05T06:30:59.123Z,988.58
2017-02-05T06:32:09.082Z,988.6
2017-02-05T06:33:19.839Z,988.62
2017-02-05T06:34:30.586Z,988.61
2017-02-05T06:35:40.968Z,988.68
2017-02-05T06:36:51.565Z,988.65
2017-02-05T06:38:02.316Z,988.68
2017-02-05T06:39:12.294Z,988.68
2017-02-05T06:40:22.652Z,988.67
2017-02-05T06:41:33.406Z,988.75
2017-02-05T06:42:43.750Z,988.7
2017-02-05T06:43:54.488Z,988.71
2017-02-05T06:45:05.240Z,988.73
2017-02-05T06:46:15.996Z,988.74
2017-02-05T06:47:26.344Z,988.72
2017-02-05T06:48:36.309Z,988.76
2017-02-05T06:49:46.292Z,988.71
2017-02-05T06:50:57.050Z,988.66
2017-02-05T06:52:07.799Z,988.64
2017-02-05T06:53:18.178Z,988.63
2017-02-05T06:54:28.940Z,988.6
2017-02-05T06:55:39.135Z,988.63
2017-02-05T06:56:49.482Z,988.63
2017-02-05T06:57:59.850Z,988.65
2017-02-05T06:59:10.597Z,988.69
2017-02-05T07:00:20.958Z,988.71
2017-02-05T07:01:31.332Z,988.72
2017-02-05T07:02:41.687Z,988.72
2017-02-05T07:03:51.657Z,988.76
2017-02-05T07:05:02.014Z,988.8
2017-02-05T07:06:12.752Z,988.76
2017-02-05T07:07:22.715Z,988.75
2017-02-05T07:08:32.666Z,988.69
2017-02-05T07:09:43.458Z,988.69
2017-02-05T07:10:53.805Z,988.69
2017-02-05T07:12:04.198Z,988.66
2017-02-05T07:13:14.552Z,988.65
2017-02-05T07:14:24.915Z,988.66
2017-02-05T07:15:35.273Z,988.75
2017-02-05T07:16:46.017Z,988.68
2017-02-05T07:17:56.810Z,988.68
2017-02-05T07:19:07.546Z,988.71
2017-02-05T07:20:18.305Z,988.7
2017-02-05T07:21:28.659Z,988.74
2017-02-05T07:22:39.408Z,988.72
2017-02-05T07:23:49.763Z,988.74
2017-02-05T07:24:59.770Z,988.77
2017-02-05T07:26:09.737Z,988.8
2017-02-05T07:27:20.105Z,988.81
2017-02-05T07:28:30.857Z,988.83
2017-02-05T07:29:41.218Z,988.83
2017-02-05T07:30:51.981Z,988.84
2017-02-05T07:32:02.792Z,988.87
2017-02-05T07:33:13.553Z,988.85
2017-02-05T07:34:23.910Z,988.88
2017-02-05T07:35:34.702Z,988.9
2017-02-05T07:36:45.055Z,988.91
2017-02-05T07:37:55.407Z,988.93
2017-02-05T07:39:05.368Z,988.94
2017-02-05T07:40:16.129Z,988.93
2017-02-05T07:41:26.095Z,988.95
2017-02-05T07:42:36.451Z,988.94
2017-02-05T07:43:47.208Z,988.95
2017-02-05T07:44:57.165Z,988.93
2017-02-05T07:46:07.124Z,988.95
2017-02-05T07:47:17.107Z,988.97
2017-02-05T07:48:27.076Z,988.94
2017-02-05T07:49:37.833Z,988.95
2017-02-05T07:50:48.181Z,988.98
2017-02-05T07:51:58.943Z,988.92
2017-02-05T07:53:09.294Z,988.96
2017-02-05T07:54:19.474Z,988.92
2017-02-05T07:55:29.437Z,988.92
2017-02-05T07:56:39.784Z,988.94
2017-02-05T07:57:50.163Z,988.99
2017-02-05T07:59:00.567Z,988.98
2017-02-05T08:00:10.919Z,988.98
2017-02-05T08:01:20.922Z,989
2017-02-05T08:02:31.292Z,988.99
2017-02-05T08:03:42.048Z,989.04
2017-02-05T08:04:52.795Z,988.96
2017-02-05T08:06:03.538Z,988.96
2017-02-05T08:07:13.895Z,988.99
2017-02-05T08:08:24.283Z,988.94
2017-02-05T08:09:35.045Z,988.96
2017-02-05T08:10:45.403Z,988.94
2017-02-05T08:11:55.762Z,988.97
2017-02-05T08:13:06.518Z,989.01
2017-02-05T08:14:16.505Z,989.03
2017-02-05T08:15:26.867Z,989.04
2017-02-05T08:16:37.237Z,989.08
2017-02-05T08:17:47.997Z,989.08
2017-02-05T08:18:58.375Z,989.05
2017-02-05T08:20:08.723Z,989.04
2017-02-05T08:21:18.690Z,989
2017-02-05T08:22:29.446Z,989.03
2017-02-05T08:23:39.827Z,989
2017-02-05T08:24:50.594Z,989.09
2017-02-05T08:26:00.571Z,989.05
2017-02-05T08:27:10.529Z,989.07
2017-02-05T08:28:21.282Z,989.05
2017-02-05T08:29:31.248Z,989.05
2017-02-05T08:30:42.012Z,989.06
2017-02-05T08:31:52.365Z,989.05
2017-02-05T08:33:02.722Z,989.06
2017-02-05T08:34:13.093Z,989.06
2017-02-05T08:35:23.850Z,989.08
2017-02-05T08:36:34.608Z,989.08
2017-02-05T08:37:45.354Z,989.08
2017-02-05T08:38:56.106Z,989.15
2017-02-05T08:40:06.452Z,989.06
2017-02-05T08:41:16.440Z,989.06
2017-02-05T08:42:26.409Z,989.08
2017-02-05T08:43:37.208Z,989.03
2017-02-05T08:44:47.590Z,989.07
2017-02-05T08:45:58.335Z,989.05
2017-02-05T08:47:08.294Z,989.11
2017-02-05T08:48:18.263Z,989.12
2017-02-05T08:49:28.635Z,989.06
2017-02-05T08:50:39.439Z,989.11
2017-02-05T08:51:50.195Z,989.11
2017-02-05T08:53:00.551Z,989.13
2017-02-05T08:54:11.307Z,989.15
2017-02-05T08:55:21.280Z,989.16
2017-02-05T08:56:31.636Z,989.14
2017-02-05T08:57:42.383Z,989.12
2017-02-05T08:58:53.148Z,989.17
2017-02-05T09:00:03.901Z,989.14
2017-02-05T09:01:14.657Z,989.13
2017-02-05T09:02:25.416Z,989.11
2017-02-05T09:03:36.222Z,989.12
2017-02-05T09:04:46.562Z,989.15
2017-02-05T09:05:56.920Z,989.07
2017-02-05T09:07:06.880Z,989.07
2017-02-05T09:08:17.233Z,989.06
2017-02-05T09:09:27.994Z,989.1
2017-02-05T09:10:37.569Z,989.07
2017-02-05T09:11:48.329Z,989.07
2017-02-05T09:12:58.338Z,989.09
2017-02-05T09:14:08.706Z,989.05
2017-02-05T09:15:19.470Z,989.11
2017-02-05T09:16:29.836Z,989.08
2017-02-05T09:17:40.215Z,989.12
2017-02-05T09:18:50.592Z,989.07
2017-02-05T09:20:01.355Z,989.13
2017-02-05T09:21:12.133Z,989.16
2017-02-05T09:22:22.494Z,989.14
2017-02-05T09:23:32.859Z,989.14
2017-02-05T09:24:42.813Z,989.14
2017-02-05T09:25:53.578Z,989.16
2017-02-05T09:27:03.947Z,989.11
2017-02-05T09:28:14.707Z,989.04
2017-02-05T09:29:25.120Z,989.06
2017-02-05T09:30:35.511Z,989.09
2017-02-05T09:31:45.874Z,989.02
2017-02-05T09:32:55.843Z,989
2017-02-05T09:34:06.212Z,989.05
2017-02-05T09:35:16.968Z,989.13
2017-02-05T09:36:27.556Z,989.07
2017-02-05T09:37:38.311Z,989.05
2017-02-05T09:38:48.673Z,989.05
2017-02-05T09:39:59.049Z,988.96
2017-02-05T09:41:09.815Z,988.99
2017-02-05T09:42:20.568Z,989.06
2017-02-05T09:43:30.534Z,989
2017-02-05T09:44:41.279Z,988.99
2017-02-05T09:45:52.072Z,989
2017-02-05T09:47:02.431Z,989.07
2017-02-05T09:48:12.781Z,989.05
2017-02-05T09:49:23.541Z,989.06
2017-02-05T09:50:34.283Z,989.06
2017-02-05T09:51:45.058Z,989.11
2017-02-05T09:52:55.809Z,989.16
2017-02-05T09:54:06.180Z,989.13
2017-02-05T09:55:16.946Z,989.15
2017-02-05T09:56:26.909Z,989.15
2017-02-05T09:57:37.276Z,989.18
2017-02-05T09:58:47.655Z,989.17
2017-02-05T09:59:58.422Z,989.12
2017-02-05T10:01:08.828Z,989.17
2017-02-05T10:02:19.202Z,989.18
2017-02-05T10:03:29.167Z,989.19
2017-02-05T10:04:39.940Z,989.17
2017-02-05T10:05:49.506Z,989.21
2017-02-05T10:07:00.261Z,989.12
2017-02-05T10:08:10.622Z,989.15
2017-02-05T10:09:20.984Z,989.13
2017-02-05T10:10:31.747Z,989.2
2017-02-05T10:11:42.110Z,989.2
2017-02-05T10:12:52.483Z,989.16
2017-02-05T10:14:03.244Z,989.19
2017-02-05T10:15:13.615Z,989.12
2017-02-05T10:16:24.365Z,989.12
2017-02-05T10:17:35.179Z,989.12
2017-02-05T10:18:45.946Z,989.11
2017-02-05T10:19:56.702Z,989.13
2017-02-05T10:21:07.495Z,989.16
2017-02-05T10:22:18.269Z,989.1
2017-02-05T10:23:29.021Z,989.06
2017-02-05T10:24:39.381Z,989.06
2017-02-05T10:25:49.730Z,989.06
2017-02-05T10:27:00.483Z,989.04
2017-02-05T10:28:10.838Z,989.01
2017-02-05T10:29:21.199Z,988.9
2017-02-05T10:30:31.965Z,988.93
2017-02-05T10:31:42.323Z,988.85
2017-02-05T10:32:52.707Z,988.84
2017-02-05T10:34:02.689Z,988.9
2017-02-05T10:35:13.465Z,988.94
2017-02-05T10:36:23.831Z,988.89
2017-02-05T10:37:34.413Z,988.83
2017-02-05T10:38:44.378Z,988.8
2017-02-05T10:39:55.131Z,988.8
2017-02-05T10:41:05.487Z,988.82
2017-02-05T10:42:15.877Z,988.76
2017-02-05T10:43:26.621Z,988.72
2017-02-05T10:44:36.999Z,988.68
2017-02-05T10:45:46.959Z,988.64
2017-02-05T10:46:57.728Z,988.61
2017-02-05T10:48:07.328Z,988.59
2017-02-05T10:49:17.698Z,988.58
2017-02-05T10:50:28.077Z,988.57
2017-02-05T10:51:38.824Z,988.57
2017-02-05T10:52:49.203Z,988.56
2017-02-05T10:53:59.556Z,988.48
2017-02-05T10:55:10.322Z,988.45
2017-02-05T10:56:21.075Z,988.46
2017-02-05T10:57:31.864Z,988.5
2017-02-05T10:58:42.239Z,988.47
2017-02-05T10:59:53.007Z,988.58
2017-02-05T11:01:03.792Z,988.45
2017-02-05T11:02:14.179Z,988.53
2017-02-05T11:03:24.959Z,988.39
2017-02-05T11:04:35.344Z,988.43
2017-02-05T11:05:45.324Z,988.5
2017-02-05T11:06:55.293Z,988.49
2017-02-05T11:08:06.082Z,988.45
2017-02-05T11:09:16.460Z,988.46
2017-02-05T11:10:26.857Z,988.35
2017-02-05T11:11:37.230Z,988.38
2017-02-05T11:12:48.004Z,988.37
2017-02-05T11:13:57.991Z,988.41
2017-02-05T11:15:08.356Z,988.34
2017-02-05T11:16:18.725Z,988.29
2017-02-05T11:17:29.512Z,988.24
2017-02-05T11:18:39.888Z,988.25
2017-02-05T11:19:50.258Z,988.21
2017-02-05T11:21:00.635Z,988.21
2017-02-05T11:22:11.399Z,988.19
2017-02-05T11:23:21.380Z,988.14
2017-02-05T11:24:32.154Z,988.13
2017-02-05T11:25:42.521Z,988.11
2017-02-05T11:26:52.493Z,988.05
2017-02-05T11:28:02.520Z,988.03
2017-02-05T11:29:13.295Z,988.04
2017-02-05T11:30:23.703Z,988.01
2017-02-05T11:31:33.269Z,988
2017-02-05T11:32:43.258Z,988.01
2017-02-05T11:33:53.636Z,987.99
2017-02-05T11:35:04.396Z,987.98
2017-02-05T11:36:14.754Z,987.97
2017-02-05T11:37:25.721Z,987.91
2017-02-05T11:38:36.487Z,987.94
2017-02-05T11:39:46.863Z,987.95
2017-02-05T11:40:56.826Z,987.89
2017-02-05T11:42:07.195Z,987.9
2017-02-05T11:43:17.963Z,987.86
2017-02-05T11:44:28.735Z,987.87
2017-02-05T11:45:38.746Z,987.88
2017-02-05T11:46:49.519Z,987.86
2017-02-05T11:47:59.485Z,987.9
2017-02-05T11:49:09.885Z,987.86
2017-02-05T11:50:20.294Z,987.88
2017-02-05T11:51:30.745Z,987.87
2017-02-05T11:52:41.122Z,987.89
2017-02-05T11:53:51.884Z,987.88
2017-02-05T11:55:02.254Z,987.86
2017-02-05T11:56:12.636Z,987.85
2017-02-05T11:57:23.395Z,987.83
2017-02-05T11:58:33.759Z,987.84
2017-02-05T11:59:44.153Z,987.86
2017-02-05T12:00:54.920Z,987.85
2017-02-05T12:02:05.680Z,987.85
2017-02-05T12:03:16.449Z,987.89
2017-02-05T12:04:26.814Z,987.87
2017-02-05T12:05:37.223Z,987.9
2017-02-05T12:06:47.607Z,987.91
2017-02-05T12:07:57.984Z,987.92
2017-02-05T12:09:08.756Z,987.91
2017-02-05T12:10:19.522Z,987.89
2017-02-05T12:11:30.304Z,987.91
2017-02-05T12:12:40.683Z,987.89
2017-02-05T12:13:51.481Z,987.9
2017-02-05T12:15:02.284Z,987.94
2017-02-05T12:16:13.073Z,987.89
2017-02-05T12:17:23.827Z,987.92
2017-02-05T12:18:33.811Z,987.91
2017-02-05T12:19:43.787Z,987.9
2017-02-05T12:20:54.220Z,987.9
2017-02-05T12:22:04.986Z,987.93
2017-02-05T12:23:15.367Z,987.94
2017-02-05T12:24:26.197Z,987.98
2017-02-05T12:25:36.568Z,987.95
2017-02-05T12:26:46.927Z,987.88
2017-02-05T12:27:57.299Z,987.85
2017-02-05T12:29:08.065Z,987.87
2017-02-05T12:30:18.854Z,987.86
2017-02-05T12:31:29.621Z,987.84
2017-02-05T12:32:39.599Z,987.79
2017-02-05T12:33:49.182Z,987.8
2017-02-05T12:34:59.543Z,987.78
2017-02-05T12:36:10.332Z,987.77
2017-02-05T12:37:20.688Z,987.73
2017-02-05T12:38:31.445Z,987.69
2017-02-05T12:39:41.845Z,987.7
2017-02-05T12:40:52.598Z,987.63
2017-02-05T12:42:02.951Z,987.61
2017-02-05T12:43:12.520Z,987.6
2017-02-05T12:44:22.885Z,987.61
2017-02-05T12:45:33.242Z,987.61
2017-02-05T12:46:43.999Z,987.65
2017-02-05T12:47:54.772Z,987.64
2017-02-05T12:49:05.161Z,987.64
2017-02-05T12:50:15.522Z,987.67
2017-02-05T12:51:25.876Z,987.64
2017-02-05T12:52:36.641Z,987.67
2017-02-05T12:53:46.601Z,987.67
2017-02-05T12:54:57.380Z,987.69
2017-02-05T12:56:07.379Z,987.67
2017-02-05T12:57:17.757Z,987.74
2017-02-05T12:58:28.120Z,987.77
2017-02-05T12:59:38.865Z,987.76
2017-02-05T13:00:49.616Z,987.74
2017-02-05T13:01:59.991Z,987.73
2017-02-05T13:03:10.358Z,987.77
2017-02-05T13:04:20.717Z,987.77
2017-02-05T13:05:31.083Z,987.74
2017-02-05T13:06:41.867Z,987.75
2017-02-05T13:07:52.220Z,987.69
2017-02-05T13:09:02.582Z,987.65
2017-02-05T13:10:13.346Z,987.59
2017-02-05T13:11:24.112Z,987.62
2017-02-05T13:12:34.866Z,987.56
2017-02-05T13:13:45.629Z,987.58
2017-02-05T13:14:55.605Z,987.57
2017-02-05T13:16:05.577Z,987.64
2017-02-05T13:17:16.332Z,987.63
2017-02-05T13:18:27.091Z,987.58
2017-02-05T13:19:37.880Z,987.63
2017-02-05T13:20:48.255Z,987.59
2017-02-05T13:21:59.020Z,987.63
2017-02-05T13:23:08.992Z,987.58
2017-02-05T13:24:18.971Z,987.56
2017-02-05T13:25:29.406Z,987.56
2017-02-05T13:26:39.771Z,987.58
2017-02-05T13:27:50.148Z,987.55
2017-02-05T13:29:00.924Z,987.59
2017-02-05T13:30:11.297Z,987.56
2017-02-05T13:31:21.666Z,987.57
2017-02-05T13:32:31.643Z,987.53
2017-02-05T13:33:42.394Z,987.51
2017-02-05T13:34:53.138Z,987.59
2017-02-05T13:36:03.116Z,987.61
2017-02-05T13:37:13.494Z,987.58
2017-02-05T13:38:24.259Z,987.57
2017-02-05T13:39:34.631Z,987.58
2017-02-05T13:40:45.398Z,987.55
2017-02-05T13:41:54.603Z,987.56
2017-02-05T13:43:04.971Z,987.55
2017-02-05T13:44:14.955Z,987.55
2017-02-05T13:45:25.324Z,987.54
2017-02-05T13:46:35.694Z,987.58
2017-02-05T13:47:46.462Z,987.57
2017-02-05T13:48:56.834Z,987.59
2017-02-05T13:50:07.614Z,987.59
2017-02-05T13:51:18.415Z,987.57
2017-02-05T13:52:28.003Z,987.54
2017-02-05T13:53:37.611Z,987.55
2017-02-05T13:54:48.374Z,987.5
2017-02-05T13:55:59.142Z,987.53
2017-02-05T13:57:09.911Z,987.51
2017-02-05T13:58:20.688Z,987.48
2017-02-05T13:59:31.463Z,987.44
2017-02-05T14:00:42.207Z,987.44
2017-02-05T14:01:52.974Z,987.37
2017-02-05T14:03:03.354Z,987.41
2017-02-05T14:04:14.115Z,987.38
2017-02-05T14:05:24.880Z,987.39
2017-02-05T14:06:35.704Z,987.35
2017-02-05T14:07:46.071Z,987.35
2017-02-05T14:08:56.043Z,987.36
2017-02-05T14:10:06.803Z,987.35
2017-02-05T14:11:17.563Z,987.33
2017-02-05T14:12:28.349Z,987.34
2017-02-05T14:13:38.731Z,987.32
2017-02-05T14:14:49.513Z,987.3
2017-02-05T14:15:59.508Z,987.31
2017-02-05T14:17:09.879Z,987.28
2017-02-05T14:18:20.277Z,987.28
2017-02-05T14:19:30.640Z,987.25
2017-02-05T14:20:40.607Z,987.27
2017-02-05T14:21:51.385Z,987.26
2017-02-05T14:23:02.160Z,987.27
2017-02-05T14:24:12.971Z,987.24
2017-02-05T14:25:23.751Z,987.23
2017-02-05T14:26:34.494Z,987.23
2017-02-05T14:27:44.492Z,987.25
2017-02-05T14:28:54.878Z,987.26
2017-02-05T14:30:05.648Z,987.21
2017-02-05T14:31:16.408Z,987.19
2017-02-05T14:32:26.792Z,987.18
2017-02-05T14:33:37.160Z,987.15
2017-02-05T14:34:47.517Z,987.18
2017-02-05T14:35:57.903Z,987.14
2017-02-05T14:37:07.863Z,987.08
2017-02-05T14:38:18.620Z,987.07
2017-02-05T14:39:28.976Z,987.02
2017-02-05T14:40:39.355Z,987.01
2017-02-05T14:41:50.185Z,987.01
2017-02-05T14:43:00.589Z,987.01
2017-02-05T14:44:11.350Z,987.06
2017-02-05T14:45:22.149Z,987.03
2017-02-05T14:46:32.919Z,987.03
2017-02-05T14:47:43.692Z,987
2017-02-05T14:48:54.455Z,987.04
2017-02-05T14:50:04.815Z,986.99
2017-02-05T14:51:15.180Z,987
2017-02-05T14:52:25.981Z,986.98
2017-02-05T14:53:36.740Z,986.94
2017-02-05T14:54:46.714Z,986.98
2017-02-05T14:55:57.486Z,986.99
2017-02-05T14:57:07.848Z,987
2017-02-05T14:58:18.621Z,986.98
2017-02-05T14:59:29.017Z,987.01
2017-02-05T15:00:38.992Z,987.01
2017-02-05T15:01:49.750Z,987.02
2017-02-05T15:03:00.136Z,987.05
2017-02-05T15:04:10.484Z,987.05
2017-02-05T15:05:21.232Z,987.01
2017-02-05T15:06:31.602Z,987.02
2017-02-05T15:07:42.342Z,987.03
2017-02-05T15:08:51.925Z,987.03
2017-02-05T15:10:02.713Z,986.99
2017-02-05T15:11:12.286Z,987.01
2017-02-05T15:12:22.650Z,986.98
2017-02-05T15:13:33.023Z,986.98